• Join FlightAware (Why Join?)
  • Login
  • US Flag 
06:26AM EDT


 

Airport Tracker/Info


-or-


 

Live Flight TrackerFlight Track Log ✈ SWA158 ✈ 29-Apr-2013 ✈ KMDW - KMHT

Flight Track Log - Related Links

Times and Time Zones

All times are in EDT time to prevent confusion due to time zone crossing. See the SWA158 flight status page for this flight to view local times or setup timezone preferences in your user account.

Time Position Orientation Groundspeed Altitude Reporting Facility
EDT Latitude Longitude Course Direction KTS MPH feet Rate Location/Type
02:39PM 41.7667 -87.7833 346° North 154 177 2,100  Level Chicago TRACON
02:40PM 41.8167 -87.8000 346° North 251 289 4,300 2,400 Climbing Chicago TRACON
02:41PM 41.8167 -87.7000 90° East 275 316 7,000 3,000 Climbing Chicago TRACON
02:42PM 41.8064 -87.6081 98° East 284 327 9,900 3,360 Climbing Chicago Center
02:43PM 41.7981 -87.4883 95° East 312 359 13,400 2,700 Climbing Chicago Center
02:44PM 41.7878 -87.3611 96° East 336 387 15,600 2,460 Climbing Chicago Center
02:45PM 41.7742 -87.2164 97° East 376 433 18,500 2,700 Climbing Chicago Center
02:46PM 41.7619 -87.0675 96° East 397 457 21,200 2,460 Climbing Chicago Center
02:47PM 41.7631 -86.9094 89° East 422 486 23,600 2,340 Climbing Chicago Center
02:48PM 41.7644 -86.7153 89° East 435 501 26,100 2,220 Climbing Chicago Center
02:49PM 41.7658 -86.5425 89° East 448 516 28,200 1,860 Climbing Chicago Center
02:50PM 41.7672 -86.3692 89° East 461 531 30,000 1,620 Climbing Chicago Center
02:51PM 41.7886 -86.1969 80° East 470 541 31,600 1,440 Climbing Chicago Center
02:52PM 41.8183 -86.0264 77° East 471 542 33,000 660 Climbing Chicago Center
02:53PM 41.8483 -85.8519 77° East 475 547 33,000  Level Chicago Center
02:54PM 41.8786 -85.6764 77° East 478 550 33,000  Level Chicago Center
02:55PM 41.9139 -85.5033 75° East 478 550 33,000 720 Level Chicago Center
02:56PM 41.9986 -85.3233 58° Northeast 472 543 34,600 1,320 Climbing Chicago Center
02:57PM 42.0558 -85.1889 60° Northeast 474 545 35,800 660 Climbing Chicago Center
02:58PM 42.1358 -85.0067 59° Northeast 474 545 36,000 60 Climbing Chicago Center
02:59PM 42.1608 -84.8806 75° East 464 534 36,000  Level Cleveland Center
03:00PM 42.1700 -84.6906 86° East 464 534 36,000 720 Level Cleveland Center
03:01PM 42.1931 -84.5072 80° East 465 535 37,500 1,500 Climbing Cleveland Center
03:02PM 42.2114 -84.3317 82° East 465 535 39,000 720 Climbing Cleveland Center
03:03PM 42.2272 -84.1614 83° East 465 535 39,000  Level Cleveland Center
03:04PM 42.2428 -83.9911 83° East 459 528 39,000  Level Cleveland Center
03:05PM 42.2581 -83.8236 83° East 459 528 39,000  Level Cleveland Center
03:06PM 42.2756 -83.6478 82° East 459 528 39,000  Level Cleveland Center
03:07PM 42.2925 -83.4772 82° East 465 535 39,000  Level Cleveland Center
03:08PM 42.3050 -83.3067 84° East 465 535 39,000  Level Cleveland Center
03:09PM 42.3192 -83.1469 83° East 460 529 39,000  Level Cleveland Center
03:10PM 42.3331 -82.9764 84° East 460 529 39,000  Level Cleveland Center
03:11PM 42.3492 -82.8000 83° East 460 529 39,000  Level Cleveland Center
03:12PM 42.3628 -82.6261 84° East 460 529 39,000  Level Cleveland Center
03:13PM 42.3761 -82.4522 84° East 460 529 39,000  Level Cleveland Center
03:14PM 42.3914 -82.2783 83° East 460 529 39,000  Level Cleveland Center
03:15PM 42.4042 -82.1072 84° East 460 529 39,000  Level Cleveland Center
03:16PM 42.4211 -81.9333 82° East 460 529 39,000  Level Cleveland Center
03:17PM 42.4311 -81.7647 85° East 460 529 39,000  Level Cleveland Center
03:18PM 42.4456 -81.5736 84° East 460 529 39,000  Level Cleveland Center
03:19PM 42.4594 -81.4050 84° East 460 529 39,000  Level Cleveland Center
03:20PM 42.4708 -81.2392 85° East 454 522 39,000  Level Cleveland Center
03:21PM 42.4822 -81.0675 85° East 454 522 39,000  Level Cleveland Center
03:22PM 42.4931 -80.9042 85° East 449 517 39,000  Level Cleveland Center
03:23PM 42.5039 -80.7297 85° East 449 517 39,000  Level Cleveland Center
03:24PM 42.5144 -80.5633 85° East 443 510 39,000  Level Cleveland Center
03:25PM 42.5225 -80.3972 86° East 443 510 39,000  Level Cleveland Center
03:26PM 42.5347 -80.2506 83° East 438 504 39,000  Level Cleveland Center
03:27PM 42.5447 -80.0817 85° East 443 510 39,000  Level Cleveland Center
03:28PM 42.5583 -79.8983 84° East 443 510 39,000  Level Cleveland Center
03:29PM 42.5697 -79.7319 85° East 443 510 39,000  Level Cleveland Center
03:30PM 42.5767 -79.5597 87° East 443 510 39,000  Level Cleveland Center
03:31PM 42.5875 -79.3903 85° East 443 510 39,000  Level Cleveland Center
03:32PM 42.5961 -79.2208 86° East 443 510 39,000  Level Cleveland Center
03:33PM 42.6042 -79.0486 86° East 443 510 39,000  Level Cleveland Center
03:34PM 42.6122 -78.8764 86° East 448 516 39,000  Level Cleveland Center
03:35PM 42.6200 -78.7069 86° East 448 516 39,000  Level Cleveland Center
03:36PM 42.6275 -78.5372 87° East 448 516 39,000  Level Cleveland Center
03:37PM 42.6369 -78.3675 86° East 448 516 39,000  Level Cleveland Center
03:38PM 42.6439 -78.1981 87° East 448 516 39,000  Level Cleveland Center
03:39PM 42.6508 -78.0283 87° East 442 509 39,000  Level Cleveland Center
03:40PM 42.6575 -77.8644 87° East 442 509 39,000  Level Cleveland Center
03:41PM 42.6622 -77.7117 88° East 442 509 39,000  Level Cleveland Center
03:43PM 42.6767 -77.3269 87° East 440 506 39,000  Level Boston Center
03:44PM 42.6819 -77.1578 88° East 445 512 39,000  Level Boston Center
03:45PM 42.6867 -76.9856 88° East 445 512 39,000  Level Boston Center
03:46PM 42.6936 -76.8108 87° East 452 520 39,000  Level Boston Center
03:47PM 42.7000 -76.6389 87° East 457 526 39,000  Level Boston Center
03:48PM 42.7042 -76.4667 88° East 457 526 39,000  Level Boston Center
03:49PM 42.7083 -76.2917 88° East 457 526 39,000  Level Boston Center
03:50PM 42.7167 -76.1028 86° East 457 526 39,000  Level Boston Center
03:51PM 42.7178 -75.9306 89° East 457 526 39,000  Level Boston Center
03:52PM 42.7231 -75.7583 88° East 452 520 39,000  Level Boston Center
03:53PM 42.7258 -75.5889 89° East 452 520 39,000 -660 Level Boston Center
03:54PM 42.7261 -75.4136 90° East 458 527 37,700 -1,860 Descending Boston Center
03:55PM 42.7328 -75.2442 87° East 458 527 35,300 -2,280 Descending Boston Center
03:56PM 42.7325 -75.0775 90° East 453 521 33,200 -2,100 Descending Boston Center
03:57PM 42.7361 -74.9108 88° East 447 514 31,200 -1,800 Descending Boston Center
03:58PM 42.7367 -74.7864 90° East 433 498 29,700 -1,140 Descending Boston Center
03:59PM 42.7406 -74.6000 88° East 417 480 29,000 -360 Descending Boston Center
04:00PM 42.7433 -74.4389 89° East 412 474 29,000 -300 Level Boston Center
04:01PM 42.7461 -74.2778 89° East 419 482 28,400 -840 Descending Boston Center
04:02PM 42.7444 -74.1222 91° East 419 482 27,400 -1,020 Descending Boston Center
04:03PM 42.7425 -73.9667 91° East 419 482 26,400 -1,020 Descending Boston Center
04:04PM 42.7464 -73.8169 88° East 414 476 25,400 -1,020 Descending Boston Center
04:05PM 42.7544 -73.6644 86° East 403 464 24,400 -1,020 Descending Boston Center
04:06PM 42.7581 -73.5147 88° East 398 458 23,400 -1,020 Descending Boston Center
04:07PM 42.7656 -73.3706 86° East 393 452 22,400 -1,020 Descending Boston Center
04:08PM 42.7686 -73.2292 88° East 382 440 21,400 -1,080 Descending Boston Center
04:09PM 42.7736 -73.0878 87° East 377 434 20,300 -1,020 Descending Boston Center
04:10PM 42.7786 -72.9578 87° East 371 427 19,400 -660 Descending Boston Center
04:11PM 42.7811 -72.8192 89° East 361 415 19,000 -540 Descending Boston Center
04:12PM 42.7858 -72.6833 87° East 354 407 18,400 -960 Descending Boston Center
04:13PM 42.7881 -72.5589 89° East 343 395 17,100 -1,380 Descending Boston Center
04:14PM 42.7900 -72.4514 89° East 331 381 15,700 -1,500 Descending Boston Center
04:15PM 42.7942 -72.3297 87° East 325 374 14,100 -1,740 Descending Boston Center
04:16PM 42.8003 -72.2081 86° East 320 368 12,300 -1,800 Descending Boston Center
04:17PM 42.8103 -72.0833 84° East 309 356 10,600 -1,260 Descending Boston Center
04:18PM 42.8183 -71.9817 84° East 309 356 9,800 -1,140 Descending Boston Center
04:19PM 42.8283 -71.8653 83° East 289 333 8,400 -1,260 Descending Boston Center
04:20PM 42.8717 -71.7969 49° Northeast 256 295 7,300 -1,140 Descending Boston Center
04:21PM 42.9381 -71.7339 35° Northeast 251 289 6,200 -1,080 Descending Boston Center
04:23PM 42.9833 -71.6483 54° Northeast 251 289 5,000 -1,140 Descending Boston Center
04:24PM 43.0181 -71.5569 63° Northeast 246 283 3,800 -1,140 Descending Boston Center
04:25PM 43.0258 -71.4914 81° East 217 250 2,800 -1,260 Descending Boston Center
04:26PM 42.9881 -71.4667 154° Southeast 118 136 1,300 -1,140 Descending Boston Center
04:27PM 42.9567 -71.4472 156° South 129 148 600 -480 Descending Boston Center
04:28PM 42.9253 -71.4250 153° Southeast 129 148 400 4,200 Descending Boston Center
04:29PM 42.8939 -71.4058 156° South 129 148 9,000 4,260 Climbing Boston Center
04:30PM 42.8622 -71.3836 153° Southeast 129 148 9,000  Level Boston Center
04:32PM 42.9167 -71.4333 316° Northwest  Level FlightAware Approximate
04:39PM 42.9328 -71.4358 316° Northwest  Level Estimated
04:40PM 42.9328 -71.4358 316° Northwest  Level Estimated
04:41PM 42.9328 -71.4358 316° Northwest  Level Estimated
04:42PM 42.9328 -71.4358 316° Northwest  Level Estimated
04:43PM 42.9328 -71.4358 316° Northwest  Level Estimated
04:44PM 42.9328 -71.4358 316° Northwest  Level Estimated